createdAt,value
2023-03-01T00:01:12.519Z,60.94
2023-03-01T00:03:59.219Z,60.95
2023-03-01T00:06:47.001Z,60.20
2023-03-01T00:09:32.305Z,59.92
2023-03-01T00:12:17.777Z,60.47
2023-03-01T00:15:05.740Z,60.40
2023-03-01T00:17:51.338Z,60.55
2023-03-01T00:20:36.675Z,60.81
2023-03-01T00:23:23.446Z,60.88
2023-03-01T00:26:12.037Z,61.22
2023-03-01T00:29:00.279Z,61.39
2023-03-01T00:31:45.440Z,61.78
2023-03-01T00:34:30.979Z,62.31
2023-03-01T00:37:16.067Z,62.59
2023-03-01T00:40:01.120Z,62.67
2023-03-01T00:42:46.430Z,62.70
2023-03-01T00:45:32.271Z,63.12
2023-03-01T00:48:17.900Z,63.26
2023-03-01T00:51:12.559Z,63.59
2023-03-01T00:54:00.650Z,63.99
2023-03-01T00:56:46.053Z,63.76
2023-03-01T00:59:31.879Z,63.66
2023-03-01T01:02:18.386Z,64.25
2023-03-01T01:05:04.187Z,64.62
2023-03-01T01:07:49.592Z,64.16
2023-03-01T01:10:35.894Z,64.58
2023-03-01T01:13:21.467Z,64.65
2023-03-01T01:16:08.115Z,64.95
2023-03-01T01:18:53.813Z,65.08
2023-03-01T01:21:39.316Z,65.82
2023-03-01T01:24:24.785Z,65.47
2023-03-01T01:27:10.153Z,65.09
2023-03-01T01:29:55.674Z,65.41
2023-03-01T01:32:40.883Z,65.02
2023-03-01T01:35:26.384Z,65.60
2023-03-01T01:38:11.455Z,65.28
2023-03-01T01:40:56.999Z,65.82
2023-03-01T01:43:48.775Z,65.95
2023-03-01T01:46:36.671Z,66.24
2023-03-01T01:49:25.030Z,66.72
2023-03-01T01:52:36.743Z,66.59
2023-03-01T01:55:28.473Z,66.24
2023-03-01T01:58:16.989Z,66.76
2023-03-01T02:01:03.705Z,66.17
2023-03-01T02:03:49.551Z,66.67
2023-03-01T02:06:40.604Z,66.55
2023-03-01T02:09:26.470Z,66.51
2023-03-01T02:12:12.058Z,66.50
2023-03-01T02:14:57.436Z,66.44
2023-03-01T02:17:43.351Z,66.73
2023-03-01T02:20:31.950Z,66.47
2023-03-01T02:23:17.678Z,66.05
2023-03-01T02:26:08.389Z,65.93
2023-03-01T02:28:54.074Z,66.29
2023-03-01T02:31:45.948Z,66.30
2023-03-01T02:34:33.290Z,65.97
2023-03-01T02:37:25.539Z,66.33
2023-03-01T02:40:18.326Z,66.49
2023-03-01T02:43:09.471Z,66.22
2023-03-01T02:45:59.389Z,66.53
2023-03-01T02:48:48.198Z,66.66
2023-03-01T02:51:53.622Z,66.58
2023-03-01T02:54:55.208Z,66.60
2023-03-01T02:57:45.053Z,67.07
2023-03-01T03:00:50.832Z,66.45
2023-03-01T03:03:36.661Z,65.98
2023-03-01T03:06:34.444Z,66.08
2023-03-01T03:09:30.227Z,66.03
2023-03-01T03:12:15.772Z,66.18
2023-03-01T03:15:01.134Z,66.91
2023-03-01T03:17:46.583Z,66.88
2023-03-01T03:20:32.831Z,66.26
2023-03-01T03:23:18.261Z,66.42
2023-03-01T03:26:05.077Z,66.38
2023-03-01T03:28:50.502Z,66.66
2023-03-01T03:31:36.068Z,66.46
2023-03-01T03:34:21.219Z,66.99
2023-03-01T03:37:26.564Z,67.21
2023-03-01T03:40:16.300Z,66.50
2023-03-01T03:43:03.831Z,66.99
2023-03-01T03:45:50.815Z,67.12
2023-03-01T03:48:38.633Z,67.15
2023-03-01T03:51:23.837Z,67.14
2023-03-01T03:54:09.038Z,67.06
2023-03-01T03:56:54.467Z,67.04
2023-03-01T03:59:39.828Z,66.96
2023-03-01T04:02:25.389Z,66.83
2023-03-01T04:05:12.506Z,66.83
2023-03-01T04:08:04.402Z,67.08
2023-03-01T04:10:52.576Z,66.89
2023-03-01T04:13:37.998Z,66.39
2023-03-01T04:16:23.555Z,66.80
2023-03-01T04:19:10.424Z,67.34
2023-03-01T04:21:56.003Z,67.51
2023-03-01T04:24:41.517Z,67.85
2023-03-01T04:27:26.647Z,68.13
2023-03-01T04:30:12.441Z,68.76
2023-03-01T04:32:57.749Z,68.26
2023-03-01T04:35:43.283Z,67.92
2023-03-01T04:38:28.574Z,68.06
2023-03-01T04:41:14.943Z,68.24
2023-03-01T04:44:01.090Z,68.40
2023-03-01T04:46:46.210Z,67.68
2023-03-01T04:49:32.191Z,67.73
2023-03-01T04:52:18.050Z,67.46
2023-03-01T04:55:04.590Z,67.81
2023-03-01T04:57:49.754Z,68.65
2023-03-01T05:00:35.139Z,69.29
2023-03-01T05:03:21.260Z,69.41
2023-03-01T05:06:06.582Z,69.81
2023-03-01T05:08:51.622Z,70.25
2023-03-01T05:11:37.057Z,69.72
2023-03-01T05:14:22.781Z,69.38
2023-03-01T05:17:08.233Z,69.13
2023-03-01T05:19:53.378Z,69.36
2023-03-01T05:22:39.418Z,69.90
2023-03-01T05:25:24.968Z,70.04
2023-03-01T05:28:14.106Z,69.98
2023-03-01T05:30:59.393Z,69.89
2023-03-01T05:33:44.681Z,70.16
2023-03-01T05:36:30.258Z,70.24
2023-03-01T05:39:15.564Z,70.13
2023-03-01T05:42:02.348Z,70.23
2023-03-01T05:44:47.765Z,70.06
2023-03-01T05:47:33.121Z,70.28
2023-03-01T05:50:23.915Z,70.48
2023-03-01T05:53:18.441Z,70.35
2023-03-01T05:56:05.073Z,70.23
2023-03-01T05:58:50.752Z,70.28
2023-03-01T06:01:36.838Z,70.00
2023-03-01T06:04:22.235Z,70.67
2023-03-01T06:07:07.747Z,70.64
2023-03-01T06:09:53.220Z,70.65
2023-03-01T06:12:40.301Z,70.55
2023-03-01T06:15:26.288Z,70.24
2023-03-01T06:18:11.706Z,70.46
2023-03-01T06:20:57.451Z,70.33
2023-03-01T06:23:42.640Z,70.20
2023-03-01T06:26:27.710Z,70.34
2023-03-01T06:29:12.875Z,70.46
2023-03-01T06:31:58.403Z,69.70
2023-03-01T06:34:43.695Z,69.13
2023-03-01T06:37:29.168Z,68.72
2023-03-01T06:40:15.970Z,69.30
2023-03-01T06:43:01.826Z,69.02
2023-03-01T06:45:47.149Z,69.12
2023-03-01T06:48:32.487Z,69.34
2023-03-01T06:51:18.183Z,70.05
2023-03-01T06:54:05.114Z,69.52
2023-03-01T06:56:51.095Z,70.12
2023-03-01T06:59:36.561Z,70.42
2023-03-01T07:02:22.126Z,69.39
2023-03-01T07:05:07.702Z,68.77
2023-03-01T07:07:54.708Z,68.84
2023-03-01T07:10:39.916Z,68.35
2023-03-01T07:13:25.770Z,68.68
2023-03-01T07:16:11.211Z,68.31
2023-03-01T07:18:56.894Z,67.99
2023-03-01T07:21:42.664Z,65.99
2023-03-01T07:24:27.902Z,65.41
2023-03-01T07:27:13.205Z,65.87
2023-03-01T07:29:58.592Z,64.59
2023-03-01T07:32:44.258Z,64.26
2023-03-01T07:35:29.377Z,64.32
2023-03-01T07:38:14.590Z,64.47
2023-03-01T07:41:01.855Z,64.23
2023-03-01T07:43:47.346Z,63.79
2023-03-01T07:46:33.495Z,63.00
2023-03-01T07:49:18.672Z,62.56
2023-03-01T07:52:04.081Z,62.34
2023-03-01T07:54:49.241Z,61.65
2023-03-01T07:57:34.609Z,61.16
2023-03-01T08:00:20.412Z,60.65
2023-03-01T08:03:05.870Z,59.25
2023-03-01T08:05:51.250Z,56.12
2023-03-01T08:08:37.310Z,55.27
2023-03-01T08:11:22.772Z,54.13
2023-03-01T08:14:07.839Z,54.56
2023-03-01T08:16:53.256Z,54.08
2023-03-01T08:19:39.011Z,54.39
2023-03-01T08:22:24.486Z,53.58
2023-03-01T08:25:10.637Z,52.88
2023-03-01T08:27:56.083Z,52.44
2023-03-01T08:30:41.383Z,52.41
2023-03-01T08:33:27.309Z,51.36
2023-03-01T08:36:12.575Z,50.64
2023-03-01T08:38:58.727Z,50.05
2023-03-01T08:41:44.657Z,50.06
2023-03-01T08:44:31.172Z,49.24
2023-03-01T08:47:16.401Z,48.83
2023-03-01T08:50:01.888Z,48.06
2023-03-01T08:52:47.297Z,48.07
2023-03-01T08:55:32.500Z,47.28
2023-03-01T08:58:18.200Z,48.22
2023-03-01T09:01:11.347Z,46.54
2023-03-01T09:03:59.014Z,43.92
2023-03-01T09:06:44.466Z,41.76
2023-03-01T09:09:29.774Z,40.61
2023-03-01T09:12:15.239Z,39.65
2023-03-01T09:15:00.940Z,38.17
2023-03-01T09:17:46.027Z,37.68
2023-03-01T09:20:32.578Z,38.99
2023-03-01T09:23:17.856Z,40.45
2023-03-01T09:26:04.153Z,39.76
2023-03-01T09:28:51.679Z,38.29
2023-03-01T09:31:44.264Z,38.12
2023-03-01T09:34:29.381Z,39.43
2023-03-01T09:37:15.880Z,39.93
2023-03-01T09:40:01.483Z,40.17
2023-03-01T09:42:53.194Z,40.96
2023-03-01T09:45:45.098Z,41.16
2023-03-01T09:48:38.396Z,41.89
2023-03-01T09:51:30.572Z,40.81
2023-03-01T09:54:15.674Z,40.49
2023-03-01T09:57:12.457Z,40.64
2023-03-01T10:00:22.285Z,41.25
2023-03-01T10:03:31.972Z,40.95
2023-03-01T10:06:34.967Z,41.16
2023-03-01T10:09:22.422Z,40.11
2023-03-01T10:12:12.476Z,41.02
2023-03-01T10:15:15.278Z,41.13
2023-03-01T10:18:15.334Z,41.22
2023-03-01T10:21:09.134Z,40.93
2023-03-01T10:23:54.910Z,40.75
2023-03-01T10:26:54.769Z,40.34
2023-03-01T10:30:04.016Z,40.79
2023-03-01T10:32:52.426Z,41.43
2023-03-01T10:35:38.130Z,40.24
2023-03-01T10:38:23.640Z,40.90
2023-03-01T10:41:09.392Z,39.70
2023-03-01T10:44:01.245Z,39.69
2023-03-01T10:46:46.418Z,40.12
2023-03-01T10:49:32.577Z,39.43
2023-03-01T10:52:23.476Z,39.30
2023-03-01T10:55:28.821Z,39.17
2023-03-01T10:58:21.624Z,38.82
2023-03-01T11:01:26.955Z,37.60
2023-03-01T11:04:14.538Z,38.25
2023-03-01T11:07:01.802Z,38.17
2023-03-01T11:09:46.959Z,38.15
2023-03-01T11:12:33.564Z,37.76
2023-03-01T11:15:28.309Z,37.27
2023-03-01T11:18:26.611Z,37.76
2023-03-01T11:21:17.426Z,37.20
2023-03-01T11:24:04.125Z,36.66
2023-03-01T11:26:54.897Z,34.66
2023-03-01T11:29:48.721Z,34.92
2023-03-01T11:32:44.138Z,34.06
2023-03-01T11:35:30.517Z,33.67
2023-03-01T11:38:23.552Z,32.89
2023-03-01T11:41:22.756Z,32.57
2023-03-01T11:44:42.768Z,32.59
2023-03-01T11:47:43.659Z,31.88
2023-03-01T11:50:49.518Z,31.83
2023-03-01T11:54:18.975Z,32.00
2023-03-01T11:57:42.818Z,30.75
2023-03-01T12:01:02.881Z,30.90
2023-03-01T12:04:13.937Z,31.68
2023-03-01T12:07:13.434Z,31.51
2023-03-01T12:10:22.477Z,32.01
2023-03-01T12:13:23.171Z,31.35
2023-03-01T12:16:39.104Z,31.39
2023-03-01T12:19:36.590Z,31.56
2023-03-01T12:22:36.790Z,32.01
2023-03-01T12:25:59.238Z,31.19
2023-03-01T12:28:53.029Z,31.43
2023-03-01T12:31:50.013Z,31.54
2023-03-01T12:34:54.680Z,31.49
2023-03-01T12:37:55.378Z,31.27
2023-03-01T12:41:09.066Z,30.76
2023-03-01T12:43:57.242Z,30.76
2023-03-01T12:47:13.484Z,29.54
2023-03-01T12:50:12.371Z,28.51
2023-03-01T12:52:58.743Z,29.30
2023-03-01T12:55:44.239Z,29.98
2023-03-01T12:58:49.822Z,29.93
2023-03-01T13:01:58.471Z,29.91
2023-03-01T13:05:07.460Z,30.07
2023-03-01T13:08:03.192Z,30.05
2023-03-01T13:10:59.471Z,30.09
2023-03-01T13:13:44.865Z,29.37
2023-03-01T13:16:30.535Z,29.23
2023-03-01T13:19:22.436Z,28.96
2023-03-01T13:22:30.290Z,29.62
2023-03-01T13:25:19.379Z,30.27
2023-03-01T13:28:38.489Z,30.73
2023-03-01T13:31:26.949Z,30.16
2023-03-01T13:34:42.787Z,31.05
2023-03-01T13:37:31.558Z,30.44
2023-03-01T13:40:17.655Z,30.30
2023-03-01T13:43:32.372Z,30.47
2023-03-01T13:46:22.617Z,29.06
2023-03-01T13:49:15.564Z,29.28
2023-03-01T13:52:02.622Z,29.38
2023-03-01T13:54:47.899Z,29.38
2023-03-01T13:57:40.170Z,28.87
2023-03-01T14:00:33.347Z,29.48
2023-03-01T14:03:20.733Z,29.83
2023-03-01T14:06:16.332Z,30.13
2023-03-01T14:09:07.460Z,29.79
2023-03-01T14:11:58.555Z,29.59
2023-03-01T14:15:01.184Z,29.78
2023-03-01T14:18:08.310Z,29.78
2023-03-01T14:20:53.792Z,29.24
2023-03-01T14:23:42.991Z,29.48
2023-03-01T14:26:28.561Z,29.04
2023-03-01T14:29:27.943Z,29.72
2023-03-01T14:32:18.651Z,28.92
2023-03-01T14:35:04.741Z,29.62
2023-03-01T14:37:50.739Z,30.71
2023-03-01T14:40:37.817Z,31.34
2023-03-01T14:43:27.102Z,31.45
2023-03-01T14:46:24.925Z,31.18
2023-03-01T14:49:18.035Z,31.63
2023-03-01T14:52:07.124Z,31.90
2023-03-01T14:54:54.596Z,32.52
2023-03-01T14:57:44.692Z,33.60
2023-03-01T15:00:32.880Z,33.61
2023-03-01T15:03:28.582Z,34.29
2023-03-01T15:06:18.815Z,34.13
2023-03-01T15:09:04.804Z,34.11
2023-03-01T15:11:50.060Z,34.32
2023-03-01T15:14:49.479Z,34.29
2023-03-01T15:17:40.106Z,34.39
2023-03-01T15:20:30.149Z,35.21
2023-03-01T15:23:31.114Z,36.08
2023-03-01T15:26:30.528Z,36.23
2023-03-01T15:29:19.743Z,36.69
2023-03-01T15:32:23.714Z,37.44
2023-03-01T15:35:40.205Z,37.53
2023-03-01T15:38:30.498Z,37.48
2023-03-01T15:41:26.707Z,37.30
2023-03-01T15:44:30.005Z,37.26
2023-03-01T15:47:31.906Z,37.31
2023-03-01T15:50:22.483Z,37.58
2023-03-01T15:53:13.669Z,37.91
2023-03-01T15:55:58.905Z,37.87
2023-03-01T15:58:44.482Z,37.79
2023-03-01T16:01:30.655Z,38.00
2023-03-01T16:04:21.806Z,37.91
2023-03-01T16:07:07.228Z,38.24
2023-03-01T16:09:52.904Z,38.18
2023-03-01T16:12:40.038Z,37.99
2023-03-01T16:15:33.075Z,38.17
2023-03-01T16:18:18.829Z,37.95
2023-03-01T16:21:04.316Z,38.27
2023-03-01T16:23:51.115Z,38.24
2023-03-01T16:26:38.633Z,38.29
2023-03-01T16:29:24.242Z,38.16
2023-03-01T16:32:09.416Z,38.51
2023-03-01T16:34:54.653Z,38.12
2023-03-01T16:37:40.819Z,39.03
2023-03-01T16:40:29.057Z,37.99
2023-03-01T16:43:14.457Z,38.65
2023-03-01T16:45:59.931Z,39.03
2023-03-01T16:48:46.059Z,38.91
2023-03-01T16:51:32.015Z,39.30
2023-03-01T16:54:17.418Z,38.98
2023-03-01T16:57:03.152Z,39.25
2023-03-01T16:59:53.963Z,39.19
2023-03-01T17:02:41.745Z,39.50
2023-03-01T17:05:26.886Z,39.91
2023-03-01T17:08:12.194Z,40.46
2023-03-01T17:11:07.044Z,40.34
2023-03-01T17:13:52.571Z,40.73
2023-03-01T17:16:38.044Z,40.51
2023-03-01T17:19:23.702Z,40.91
2023-03-01T17:22:09.042Z,41.28
2023-03-01T17:24:54.814Z,40.87
2023-03-01T17:27:41.206Z,41.42
2023-03-01T17:30:26.679Z,41.71
2023-03-01T17:33:12.212Z,41.94
2023-03-01T17:35:58.241Z,42.34
2023-03-01T17:38:43.832Z,42.00
2023-03-01T17:41:29.410Z,42.76
2023-03-01T17:44:14.653Z,43.14
2023-03-01T17:47:00.688Z,43.48
2023-03-01T17:49:45.968Z,43.25
2023-03-01T17:52:31.546Z,42.48
2023-03-01T17:55:17.384Z,43.01
2023-03-01T17:58:03.102Z,43.28
2023-03-01T18:00:50.571Z,43.35
2023-03-01T18:03:35.962Z,43.86
2023-03-01T18:06:24.014Z,43.36
2023-03-01T18:09:09.679Z,44.16
2023-03-01T18:11:54.712Z,43.71
2023-03-01T18:14:40.179Z,44.38
2023-03-01T18:17:25.754Z,45.13
2023-03-01T18:20:13.078Z,44.87
2023-03-01T18:22:58.426Z,44.67
2023-03-01T18:25:43.883Z,44.89
2023-03-01T18:28:30.524Z,44.78
2023-03-01T18:31:21.668Z,45.71
2023-03-01T18:34:07.169Z,46.37
2023-03-01T18:37:08.081Z,46.20
2023-03-01T18:39:54.567Z,46.19
2023-03-01T18:42:39.649Z,46.21
